sensor_id;sensor_type;location;lat;lon;timestamp;P1;durP1;ratioP1;P2;durP2;ratioP2
15706;SDS011;7953;54.302;10.128;2023-11-19T00:00:30;10.63;;;6.87;;
15706;SDS011;7953;54.302;10.128;2023-11-19T00:02:56;10.00;;;7.00;;
15706;SDS011;7953;54.302;10.128;2023-11-19T00:05:23;10.43;;;7.40;;
15706;SDS011;7953;54.302;10.128;2023-11-19T00:07:50;11.97;;;8.60;;
15706;SDS011;7953;54.302;10.128;2023-11-19T00:10:17;11.30;;;8.57;;
15706;SDS011;7953;54.302;10.128;2023-11-19T00:12:46;11.10;;;8.57;;
15706;SDS011;7953;54.302;10.128;2023-11-19T00:15:14;12.90;;;9.00;;
15706;SDS011;7953;54.302;10.128;2023-11-19T00:17:44;11.63;;;8.17;;
15706;SDS011;7953;54.302;10.128;2023-11-19T00:20:11;10.23;;;7.33;;
15706;SDS011;7953;54.302;10.128;2023-11-19T00:22:39;10.73;;;7.83;;
15706;SDS011;7953;54.302;10.128;2023-11-19T00:25:07;13.03;;;9.53;;
15706;SDS011;7953;54.302;10.128;2023-11-19T00:27:34;10.30;;;8.53;;
15706;SDS011;7953;54.302;10.128;2023-11-19T00:30:04;10.70;;;8.40;;
15706;SDS011;7953;54.302;10.128;2023-11-19T00:32:31;10.70;;;7.87;;
15706;SDS011;7953;54.302;10.128;2023-11-19T00:34:58;10.23;;;8.10;;
15706;SDS011;7953;54.302;10.128;2023-11-19T00:37:25;10.73;;;8.57;;
15706;SDS011;7953;54.302;10.128;2023-11-19T00:39:52;10.93;;;8.50;;
15706;SDS011;7953;54.302;10.128;2023-11-19T00:42:21;11.73;;;8.83;;
15706;SDS011;7953;54.302;10.128;2023-11-19T00:44:49;11.20;;;8.73;;
15706;SDS011;7953;54.302;10.128;2023-11-19T00:47:17;11.73;;;7.47;;
15706;SDS011;7953;54.302;10.128;2023-11-19T00:49:45;12.63;;;8.37;;
15706;SDS011;7953;54.302;10.128;2023-11-19T00:52:13;10.63;;;8.43;;
15706;SDS011;7953;54.302;10.128;2023-11-19T00:54:41;12.10;;;7.60;;
15706;SDS011;7953;54.302;10.128;2023-11-19T00:57:07;10.60;;;8.17;;
15706;SDS011;7953;54.302;10.128;2023-11-19T00:59:35;9.60;;;7.37;;
15706;SDS011;7953;54.302;10.128;2023-11-19T01:02:02;10.53;;;8.70;;
15706;SDS011;7953;54.302;10.128;2023-11-19T01:04:34;10.70;;;7.90;;
15706;SDS011;7953;54.302;10.128;2023-11-19T01:07:01;11.47;;;8.13;;
15706;SDS011;7953;54.302;10.128;2023-11-19T01:09:29;11.63;;;8.20;;
15706;SDS011;7953;54.302;10.128;2023-11-19T01:11:59;9.73;;;7.50;;
15706;SDS011;7953;54.302;10.128;2023-11-19T01:14:26;9.67;;;8.07;;
15706;SDS011;7953;54.302;10.128;2023-11-19T01:16:53;9.90;;;7.13;;
15706;SDS011;7953;54.302;10.128;2023-11-19T01:19:20;9.40;;;6.90;;
15706;SDS011;7953;54.302;10.128;2023-11-19T01:21:49;8.70;;;6.77;;
15706;SDS011;7953;54.302;10.128;2023-11-19T01:24:17;9.60;;;6.90;;
15706;SDS011;7953;54.302;10.128;2023-11-19T01:26:44;10.13;;;6.90;;
15706;SDS011;7953;54.302;10.128;2023-11-19T01:29:11;9.07;;;7.10;;
15706;SDS011;7953;54.302;10.128;2023-11-19T01:31:39;7.73;;;6.60;;
15706;SDS011;7953;54.302;10.128;2023-11-19T01:34:06;8.77;;;7.00;;
15706;SDS011;7953;54.302;10.128;2023-11-19T01:36:33;7.57;;;5.73;;
15706;SDS011;7953;54.302;10.128;2023-11-19T01:39:02;7.97;;;6.67;;
15706;SDS011;7953;54.302;10.128;2023-11-19T01:41:29;6.77;;;5.47;;
15706;SDS011;7953;54.302;10.128;2023-11-19T01:44:00;5.83;;;5.23;;
15706;SDS011;7953;54.302;10.128;2023-11-19T01:46:27;6.97;;;5.80;;
15706;SDS011;7953;54.302;10.128;2023-11-19T01:48:54;6.77;;;5.20;;
15706;SDS011;7953;54.302;10.128;2023-11-19T01:51:22;6.33;;;5.20;;
15706;SDS011;7953;54.302;10.128;2023-11-19T01:53:50;6.60;;;5.37;;
15706;SDS011;7953;54.302;10.128;2023-11-19T01:56:18;6.20;;;5.37;;
15706;SDS011;7953;54.302;10.128;2023-11-19T01:58:47;6.10;;;4.80;;
15706;SDS011;7953;54.302;10.128;2023-11-19T02:01:15;5.40;;;4.90;;
15706;SDS011;7953;54.302;10.128;2023-11-19T02:03:42;6.33;;;4.43;;
15706;SDS011;7953;54.302;10.128;2023-11-19T02:06:09;6.63;;;5.23;;
15706;SDS011;7953;54.302;10.128;2023-11-19T02:08:36;6.57;;;4.27;;
15706;SDS011;7953;54.302;10.128;2023-11-19T02:11:03;5.40;;;4.53;;
15706;SDS011;7953;54.302;10.128;2023-11-19T02:13:33;4.23;;;3.70;;
15706;SDS011;7953;54.302;10.128;2023-11-19T02:16:01;4.87;;;4.37;;
15706;SDS011;7953;54.302;10.128;2023-11-19T02:18:29;5.20;;;4.07;;
15706;SDS011;7953;54.302;10.128;2023-11-19T02:20:56;6.13;;;3.87;;
15706;SDS011;7953;54.302;10.128;2023-11-19T02:23:23;4.77;;;4.10;;
15706;SDS011;7953;54.302;10.128;2023-11-19T02:25:56;3.13;;;2.83;;
15706;SDS011;7953;54.302;10.128;2023-11-19T02:28:31;3.87;;;3.07;;
15706;SDS011;7953;54.302;10.128;2023-11-19T02:30:59;3.20;;;2.87;;
15706;SDS011;7953;54.302;10.128;2023-11-19T02:33:26;3.50;;;3.17;;
15706;SDS011;7953;54.302;10.128;2023-11-19T02:35:53;4.70;;;2.83;;
15706;SDS011;7953;54.302;10.128;2023-11-19T02:38:20;3.10;;;2.83;;
15706;SDS011;7953;54.302;10.128;2023-11-19T02:40:47;3.30;;;3.00;;
15706;SDS011;7953;54.302;10.128;2023-11-19T02:43:15;3.63;;;3.30;;
15706;SDS011;7953;54.302;10.128;2023-11-19T02:45:44;4.43;;;2.83;;
15706;SDS011;7953;54.302;10.128;2023-11-19T02:48:11;3.77;;;2.70;;
15706;SDS011;7953;54.302;10.128;2023-11-19T02:50:39;3.60;;;3.10;;
15706;SDS011;7953;54.302;10.128;2023-11-19T02:53:06;4.53;;;2.43;;
15706;SDS011;7953;54.302;10.128;2023-11-19T02:55:33;2.30;;;2.10;;
15706;SDS011;7953;54.302;10.128;2023-11-19T02:58:03;2.83;;;2.53;;
15706;SDS011;7953;54.302;10.128;2023-11-19T03:00:34;3.30;;;2.70;;
15706;SDS011;7953;54.302;10.128;2023-11-19T03:03:08;2.40;;;2.17;;
15706;SDS011;7953;54.302;10.128;2023-11-19T03:05:45;3.40;;;2.73;;
15706;SDS011;7953;54.302;10.128;2023-11-19T03:08:13;4.17;;;1.73;;
15706;SDS011;7953;54.302;10.128;2023-11-19T03:10:41;2.47;;;1.93;;
15706;SDS011;7953;54.302;10.128;2023-11-19T03:15:38;2.53;;;2.07;;
15706;SDS011;7953;54.302;10.128;2023-11-19T03:18:04;2.27;;;2.07;;
15706;SDS011;7953;54.302;10.128;2023-11-19T03:20:33;2.00;;;1.33;;
15706;SDS011;7953;54.302;10.128;2023-11-19T03:23:00;2.43;;;2.07;;
15706;SDS011;7953;54.302;10.128;2023-11-19T03:25:26;1.80;;;1.70;;
15706;SDS011;7953;54.302;10.128;2023-11-19T03:27:58;1.63;;;1.53;;
15706;SDS011;7953;54.302;10.128;2023-11-19T03:30:25;2.70;;;1.70;;
15706;SDS011;7953;54.302;10.128;2023-11-19T03:32:53;1.70;;;1.30;;
15706;SDS011;7953;54.302;10.128;2023-11-19T03:35:20;2.13;;;1.23;;
15706;SDS011;7953;54.302;10.128;2023-11-19T03:37:48;1.50;;;1.40;;
15706;SDS011;7953;54.302;10.128;2023-11-19T03:40:15;1.20;;;1.00;;
15706;SDS011;7953;54.302;10.128;2023-11-19T03:42:44;1.40;;;1.13;;
15706;SDS011;7953;54.302;10.128;2023-11-19T03:45:11;1.10;;;1.10;;
15706;SDS011;7953;54.302;10.128;2023-11-19T03:47:38;1.30;;;1.20;;
15706;SDS011;7953;54.302;10.128;2023-11-19T03:50:05;1.30;;;1.20;;
15706;SDS011;7953;54.302;10.128;2023-11-19T03:52:34;1.60;;;1.20;;
15706;SDS011;7953;54.302;10.128;2023-11-19T03:55:02;2.50;;;1.00;;
15706;SDS011;7953;54.302;10.128;2023-11-19T03:57:30;1.00;;;0.90;;
15706;SDS011;7953;54.302;10.128;2023-11-19T03:59:57;0.90;;;0.90;;
15706;SDS011;7953;54.302;10.128;2023-11-19T04:02:24;1.10;;;0.90;;
15706;SDS011;7953;54.302;10.128;2023-11-19T04:04:53;1.67;;;1.00;;
15706;SDS011;7953;54.302;10.128;2023-11-19T04:07:21;0.93;;;0.93;;
15706;SDS011;7953;54.302;10.128;2023-11-19T04:09:48;2.17;;;1.13;;
15706;SDS011;7953;54.302;10.128;2023-11-19T04:12:17;1.10;;;1.00;;
15706;SDS011;7953;54.302;10.128;2023-11-19T04:14:44;1.10;;;1.00;;
15706;SDS011;7953;54.302;10.128;2023-11-19T04:17:12;1.20;;;1.00;;
15706;SDS011;7953;54.302;10.128;2023-11-19T04:19:39;1.30;;;1.20;;
15706;SDS011;7953;54.302;10.128;2023-11-19T04:22:06;1.73;;;1.40;;
15706;SDS011;7953;54.302;10.128;2023-11-19T04:24:34;1.30;;;1.20;;
15706;SDS011;7953;54.302;10.128;2023-11-19T04:27:01;1.00;;;1.00;;
15706;SDS011;7953;54.302;10.128;2023-11-19T04:29:29;1.80;;;1.60;;
15706;SDS011;7953;54.302;10.128;2023-11-19T04:31:57;1.17;;;1.07;;
15706;SDS011;7953;54.302;10.128;2023-11-19T04:34:24;1.30;;;1.20;;
15706;SDS011;7953;54.302;10.128;2023-11-19T04:36:51;1.60;;;1.50;;
15706;SDS011;7953;54.302;10.128;2023-11-19T04:39:18;2.97;;;1.90;;
15706;SDS011;7953;54.302;10.128;2023-11-19T04:41:48;1.53;;;1.43;;
15706;SDS011;7953;54.302;10.128;2023-11-19T04:44:16;1.63;;;1.53;;
15706;SDS011;7953;54.302;10.128;2023-11-19T04:46:45;2.60;;;1.60;;
15706;SDS011;7953;54.302;10.128;2023-11-19T04:49:12;1.77;;;1.67;;
15706;SDS011;7953;54.302;10.128;2023-11-19T04:51:40;1.63;;;1.53;;
15706;SDS011;7953;54.302;10.128;2023-11-19T04:54:07;1.53;;;1.43;;
15706;SDS011;7953;54.302;10.128;2023-11-19T04:56:34;1.70;;;1.60;;
15706;SDS011;7953;54.302;10.128;2023-11-19T04:59:02;1.77;;;1.57;;
15706;SDS011;7953;54.302;10.128;2023-11-19T05:01:30;1.53;;;1.43;;
15706;SDS011;7953;54.302;10.128;2023-11-19T05:03:59;1.87;;;1.77;;
15706;SDS011;7953;54.302;10.128;2023-11-19T05:06:26;1.47;;;1.37;;
15706;SDS011;7953;54.302;10.128;2023-11-19T05:08:54;1.60;;;1.50;;
15706;SDS011;7953;54.302;10.128;2023-11-19T05:11:21;1.63;;;1.53;;
15706;SDS011;7953;54.302;10.128;2023-11-19T05:13:48;1.03;;;1.03;;
15706;SDS011;7953;54.302;10.128;2023-11-19T05:16:15;1.57;;;1.43;;
15706;SDS011;7953;54.302;10.128;2023-11-19T05:18:42;2.97;;;1.67;;
15706;SDS011;7953;54.302;10.128;2023-11-19T05:21:11;1.83;;;1.43;;
15706;SDS011;7953;54.302;10.128;2023-11-19T05:23:38;1.77;;;1.43;;
15706;SDS011;7953;54.302;10.128;2023-11-19T05:26:06;1.30;;;1.20;;
15706;SDS011;7953;54.302;10.128;2023-11-19T05:28:33;1.80;;;1.70;;
15706;SDS011;7953;54.302;10.128;2023-11-19T05:31:00;2.87;;;1.60;;
15706;SDS011;7953;54.302;10.128;2023-11-19T05:33:26;2.10;;;1.90;;
15706;SDS011;7953;54.302;10.128;2023-11-19T05:35:53;2.13;;;1.93;;
15706;SDS011;7953;54.302;10.128;2023-11-19T05:38:23;2.40;;;2.17;;
15706;SDS011;7953;54.302;10.128;2023-11-19T05:40:50;2.73;;;2.40;;
15706;SDS011;7953;54.302;10.128;2023-11-19T05:43:17;5.43;;;3.20;;
15706;SDS011;7953;54.302;10.128;2023-11-19T05:45:44;3.63;;;3.33;;
15706;SDS011;7953;54.302;10.128;2023-11-19T05:48:10;5.67;;;3.27;;
15706;SDS011;7953;54.302;10.128;2023-11-19T05:50:37;4.60;;;3.17;;
15706;SDS011;7953;54.302;10.128;2023-11-19T05:53:05;5.57;;;3.80;;
15706;SDS011;7953;54.302;10.128;2023-11-19T05:55:36;5.20;;;4.63;;
15706;SDS011;7953;54.302;10.128;2023-11-19T05:58:10;3.63;;;3.30;;
15706;SDS011;7953;54.302;10.128;2023-11-19T06:00:38;3.80;;;3.50;;
15706;SDS011;7953;54.302;10.128;2023-11-19T06:03:05;4.33;;;3.77;;
15706;SDS011;7953;54.302;10.128;2023-11-19T06:05:33;6.17;;;4.63;;
15706;SDS011;7953;54.302;10.128;2023-11-19T06:07:59;5.97;;;4.27;;
15706;SDS011;7953;54.302;10.128;2023-11-19T06:10:26;8.17;;;5.63;;
15706;SDS011;7953;54.302;10.128;2023-11-19T06:12:57;6.23;;;4.80;;
15706;SDS011;7953;54.302;10.128;2023-11-19T06:15:24;6.97;;;5.10;;
15706;SDS011;7953;54.302;10.128;2023-11-19T06:17:52;6.10;;;5.50;;
15706;SDS011;7953;54.302;10.128;2023-11-19T06:20:19;7.07;;;6.33;;
15706;SDS011;7953;54.302;10.128;2023-11-19T06:22:46;7.97;;;6.03;;
15706;SDS011;7953;54.302;10.128;2023-11-19T06:25:13;10.80;;;7.37;;
15706;SDS011;7953;54.302;10.128;2023-11-19T06:27:41;14.77;;;9.27;;
15706;SDS011;7953;54.302;10.128;2023-11-19T06:30:10;11.57;;;7.93;;
15706;SDS011;7953;54.302;10.128;2023-11-19T06:32:37;13.93;;;9.00;;
15706;SDS011;7953;54.302;10.128;2023-11-19T06:35:05;12.20;;;7.17;;
15706;SDS011;7953;54.302;10.128;2023-11-19T06:37:32;12.40;;;10.70;;
15706;SDS011;7953;54.302;10.128;2023-11-19T06:40:00;12.93;;;8.53;;
15706;SDS011;7953;54.302;10.128;2023-11-19T06:42:27;17.10;;;9.83;;
15706;SDS011;7953;54.302;10.128;2023-11-19T06:44:54;13.57;;;9.83;;
15706;SDS011;7953;54.302;10.128;2023-11-19T06:47:24;18.97;;;9.10;;
15706;SDS011;7953;54.302;10.128;2023-11-19T06:49:52;13.50;;;9.53;;
15706;SDS011;7953;54.302;10.128;2023-11-19T06:52:18;16.67;;;11.37;;
15706;SDS011;7953;54.302;10.128;2023-11-19T06:54:46;18.43;;;10.27;;
15706;SDS011;7953;54.302;10.128;2023-11-19T06:57:12;14.90;;;10.60;;
15706;SDS011;7953;54.302;10.128;2023-11-19T06:59:39;19.87;;;11.20;;
15706;SDS011;7953;54.302;10.128;2023-11-19T07:02:06;24.37;;;11.83;;
15706;SDS011;7953;54.302;10.128;2023-11-19T07:04:35;23.03;;;13.17;;
15706;SDS011;7953;54.302;10.128;2023-11-19T07:07:02;20.33;;;12.33;;
15706;SDS011;7953;54.302;10.128;2023-11-19T07:09:31;19.27;;;11.57;;
15706;SDS011;7953;54.302;10.128;2023-11-19T07:11:58;17.50;;;12.37;;
15706;SDS011;7953;54.302;10.128;2023-11-19T07:14:26;19.33;;;11.83;;
15706;SDS011;7953;54.302;10.128;2023-11-19T07:16:53;26.27;;;12.80;;
15706;SDS011;7953;54.302;10.128;2023-11-19T07:19:21;22.33;;;12.73;;
15706;SDS011;7953;54.302;10.128;2023-11-19T07:21:49;23.67;;;13.23;;
15706;SDS011;7953;54.302;10.128;2023-11-19T07:24:16;19.63;;;12.27;;
15706;SDS011;7953;54.302;10.128;2023-11-19T07:26:43;23.37;;;13.17;;
15706;SDS011;7953;54.302;10.128;2023-11-19T07:29:10;24.53;;;13.43;;
15706;SDS011;7953;54.302;10.128;2023-11-19T07:31:37;24.97;;;14.50;;
15706;SDS011;7953;54.302;10.128;2023-11-19T07:34:04;25.53;;;13.83;;
15706;SDS011;7953;54.302;10.128;2023-11-19T07:36:31;24.33;;;13.80;;
15706;SDS011;7953;54.302;10.128;2023-11-19T07:39:00;24.90;;;14.03;;
15706;SDS011;7953;54.302;10.128;2023-11-19T07:41:27;23.73;;;13.40;;
15706;SDS011;7953;54.302;10.128;2023-11-19T07:43:54;22.43;;;14.40;;
15706;SDS011;7953;54.302;10.128;2023-11-19T07:46:21;22.47;;;13.30;;
15706;SDS011;7953;54.302;10.128;2023-11-19T07:48:48;27.23;;;13.53;;
15706;SDS011;7953;54.302;10.128;2023-11-19T07:51:15;26.33;;;13.13;;
15706;SDS011;7953;54.302;10.128;2023-11-19T07:53:42;24.23;;;14.90;;
15706;SDS011;7953;54.302;10.128;2023-11-19T07:56:10;29.17;;;13.17;;
15706;SDS011;7953;54.302;10.128;2023-11-19T07:58:37;31.83;;;16.13;;
15706;SDS011;7953;54.302;10.128;2023-11-19T08:01:04;26.90;;;12.40;;
15706;SDS011;7953;54.302;10.128;2023-11-19T08:03:32;29.37;;;12.67;;
15706;SDS011;7953;54.302;10.128;2023-11-19T08:05:59;22.67;;;11.87;;
15706;SDS011;7953;54.302;10.128;2023-11-19T08:08:26;33.03;;;12.67;;
15706;SDS011;7953;54.302;10.128;2023-11-19T08:10:54;27.17;;;12.50;;
15706;SDS011;7953;54.302;10.128;2023-11-19T08:13:23;26.33;;;10.90;;
15706;SDS011;7953;54.302;10.128;2023-11-19T08:15:50;28.60;;;10.53;;
15706;SDS011;7953;54.302;10.128;2023-11-19T08:18:16;28.23;;;8.83;;
15706;SDS011;7953;54.302;10.128;2023-11-19T08:20:44;29.90;;;8.00;;
15706;SDS011;7953;54.302;10.128;2023-11-19T08:23:14;28.07;;;6.90;;
15706;SDS011;7953;54.302;10.128;2023-11-19T08:25:41;26.93;;;6.50;;
15706;SDS011;7953;54.302;10.128;2023-11-19T08:28:07;27.50;;;6.93;;
15706;SDS011;7953;54.302;10.128;2023-11-19T08:30:36;25.57;;;6.63;;
15706;SDS011;7953;54.302;10.128;2023-11-19T08:33:03;29.10;;;7.00;;
15706;SDS011;7953;54.302;10.128;2023-11-19T08:35:31;38.37;;;6.73;;
15706;SDS011;7953;54.302;10.128;2023-11-19T08:37:57;27.60;;;7.43;;
15706;SDS011;7953;54.302;10.128;2023-11-19T08:40:25;34.30;;;7.63;;
15706;SDS011;7953;54.302;10.128;2023-11-19T08:42:52;42.30;;;8.17;;
15706;SDS011;7953;54.302;10.128;2023-11-19T08:45:18;39.43;;;8.73;;
15706;SDS011;7953;54.302;10.128;2023-11-19T08:47:47;37.67;;;8.37;;
15706;SDS011;7953;54.302;10.128;2023-11-19T08:50:14;32.60;;;7.40;;
15706;SDS011;7953;54.302;10.128;2023-11-19T08:52:40;36.30;;;8.07;;
15706;SDS011;7953;54.302;10.128;2023-11-19T08:55:07;40.23;;;8.90;;
15706;SDS011;7953;54.302;10.128;2023-11-19T08:57:35;35.47;;;7.97;;
15706;SDS011;7953;54.302;10.128;2023-11-19T09:00:02;40.60;;;7.47;;
15706;SDS011;7953;54.302;10.128;2023-11-19T09:02:32;31.87;;;7.17;;
15706;SDS011;7953;54.302;10.128;2023-11-19T09:05:00;32.33;;;7.60;;
15706;SDS011;7953;54.302;10.128;2023-11-19T09:07:28;38.33;;;7.73;;
15706;SDS011;7953;54.302;10.128;2023-11-19T09:09:54;33.63;;;8.10;;
15706;SDS011;7953;54.302;10.128;2023-11-19T09:12:21;33.23;;;7.53;;
15706;SDS011;7953;54.302;10.128;2023-11-19T09:14:49;33.37;;;7.80;;
15706;SDS011;7953;54.302;10.128;2023-11-19T09:17:15;46.67;;;9.30;;
15706;SDS011;7953;54.302;10.128;2023-11-19T09:19:43;36.47;;;7.07;;
15706;SDS011;7953;54.302;10.128;2023-11-19T09:22:12;42.37;;;7.87;;
15706;SDS011;7953;54.302;10.128;2023-11-19T09:24:39;44.23;;;8.50;;
15706;SDS011;7953;54.302;10.128;2023-11-19T09:27:06;47.07;;;9.93;;
15706;SDS011;7953;54.302;10.128;2023-11-19T09:29:33;44.53;;;10.97;;
15706;SDS011;7953;54.302;10.128;2023-11-19T09:32:00;40.07;;;9.03;;
15706;SDS011;7953;54.302;10.128;2023-11-19T09:34:27;38.37;;;9.43;;
15706;SDS011;7953;54.302;10.128;2023-11-19T09:36:55;48.90;;;9.13;;
15706;SDS011;7953;54.302;10.128;2023-11-19T09:39:23;52.63;;;11.37;;
15706;SDS011;7953;54.302;10.128;2023-11-19T09:41:51;40.70;;;10.23;;
15706;SDS011;7953;54.302;10.128;2023-11-19T09:44:17;53.37;;;10.10;;
15706;SDS011;7953;54.302;10.128;2023-11-19T09:46:45;52.80;;;9.23;;
15706;SDS011;7953;54.302;10.128;2023-11-19T09:49:14;43.67;;;9.00;;
15706;SDS011;7953;54.302;10.128;2023-11-19T09:51:43;38.23;;;8.50;;
15706;SDS011;7953;54.302;10.128;2023-11-19T09:54:11;46.53;;;8.20;;
15706;SDS011;7953;54.302;10.128;2023-11-19T09:56:40;40.60;;;8.47;;
15706;SDS011;7953;54.302;10.128;2023-11-19T09:59:07;41.73;;;9.07;;
15706;SDS011;7953;54.302;10.128;2023-11-19T10:01:36;32.27;;;7.83;;
15706;SDS011;7953;54.302;10.128;2023-11-19T10:04:04;42.93;;;9.67;;
15706;SDS011;7953;54.302;10.128;2023-11-19T10:06:33;38.33;;;9.17;;
15706;SDS011;7953;54.302;10.128;2023-11-19T10:09:00;35.77;;;8.70;;
15706;SDS011;7953;54.302;10.128;2023-11-19T10:11:30;32.67;;;7.97;;
15706;SDS011;7953;54.302;10.128;2023-11-19T10:13:58;38.63;;;8.77;;
15706;SDS011;7953;54.302;10.128;2023-11-19T10:16:28;32.20;;;7.30;;
15706;SDS011;7953;54.302;10.128;2023-11-19T10:18:56;29.57;;;7.00;;
15706;SDS011;7953;54.302;10.128;2023-11-19T10:21:23;33.30;;;7.03;;
15706;SDS011;7953;54.302;10.128;2023-11-19T10:23:53;37.97;;;6.80;;
15706;SDS011;7953;54.302;10.128;2023-11-19T10:26:22;27.50;;;8.03;;
15706;SDS011;7953;54.302;10.128;2023-11-19T10:28:49;33.60;;;7.27;;
15706;SDS011;7953;54.302;10.128;2023-11-19T10:31:18;26.77;;;6.90;;
15706;SDS011;7953;54.302;10.128;2023-11-19T10:33:49;31.67;;;8.03;;
15706;SDS011;7953;54.302;10.128;2023-11-19T10:36:16;30.67;;;6.97;;
15706;SDS011;7953;54.302;10.128;2023-11-19T10:38:51;37.10;;;7.60;;
15706;SDS011;7953;54.302;10.128;2023-11-19T10:41:26;31.63;;;7.33;;
15706;SDS011;7953;54.302;10.128;2023-11-19T10:43:53;31.17;;;10.10;;
15706;SDS011;7953;54.302;10.128;2023-11-19T10:46:21;31.37;;;13.43;;
15706;SDS011;7953;54.302;10.128;2023-11-19T10:48:48;26.60;;;7.20;;
15706;SDS011;7953;54.302;10.128;2023-11-19T10:51:18;28.97;;;9.20;;
15706;SDS011;7953;54.302;10.128;2023-11-19T10:53:48;29.30;;;9.63;;
15706;SDS011;7953;54.302;10.128;2023-11-19T10:56:16;29.43;;;6.43;;
15706;SDS011;7953;54.302;10.128;2023-11-19T10:58:46;31.73;;;6.90;;
15706;SDS011;7953;54.302;10.128;2023-11-19T11:01:16;25.20;;;6.20;;
15706;SDS011;7953;54.302;10.128;2023-11-19T11:03:47;29.40;;;5.67;;
15706;SDS011;7953;54.302;10.128;2023-11-19T11:06:18;34.10;;;6.23;;
15706;SDS011;7953;54.302;10.128;2023-11-19T11:08:45;36.37;;;7.97;;
15706;SDS011;7953;54.302;10.128;2023-11-19T11:11:13;43.93;;;7.77;;
15706;SDS011;7953;54.302;10.128;2023-11-19T11:13:46;33.20;;;8.00;;
15706;SDS011;7953;54.302;10.128;2023-11-19T11:16:14;29.50;;;8.17;;
15706;SDS011;7953;54.302;10.128;2023-11-19T11:18:43;37.00;;;8.53;;
15706;SDS011;7953;54.302;10.128;2023-11-19T11:21:13;42.93;;;8.70;;
15706;SDS011;7953;54.302;10.128;2023-11-19T11:23:56;42.27;;;10.33;;
15706;SDS011;7953;54.302;10.128;2023-11-19T11:26:51;43.60;;;9.20;;
15706;SDS011;7953;54.302;10.128;2023-11-19T11:29:34;48.27;;;8.57;;
15706;SDS011;7953;54.302;10.128;2023-11-19T11:32:08;32.07;;;7.47;;
15706;SDS011;7953;54.302;10.128;2023-11-19T11:34:48;41.13;;;8.83;;
15706;SDS011;7953;54.302;10.128;2023-11-19T11:37:32;30.60;;;7.80;;
15706;SDS011;7953;54.302;10.128;2023-11-19T11:40:01;30.53;;;8.10;;
15706;SDS011;7953;54.302;10.128;2023-11-19T11:42:35;33.63;;;7.77;;
15706;SDS011;7953;54.302;10.128;2023-11-19T11:45:03;30.23;;;8.67;;
15706;SDS011;7953;54.302;10.128;2023-11-19T11:50:47;37.73;;;7.10;;
15706;SDS011;7953;54.302;10.128;2023-11-19T11:53:21;39.23;;;8.97;;
15706;SDS011;7953;54.302;10.128;2023-11-19T11:55:53;36.43;;;10.20;;
15706;SDS011;7953;54.302;10.128;2023-11-19T11:58:28;41.70;;;12.70;;
15706;SDS011;7953;54.302;10.128;2023-11-19T12:00:57;35.70;;;10.13;;
15706;SDS011;7953;54.302;10.128;2023-11-19T12:03:26;44.10;;;10.43;;
15706;SDS011;7953;54.302;10.128;2023-11-19T12:05:55;41.70;;;8.47;;
15706;SDS011;7953;54.302;10.128;2023-11-19T12:08:26;28.23;;;7.70;;
15706;SDS011;7953;54.302;10.128;2023-11-19T12:10:55;38.83;;;8.93;;
15706;SDS011;7953;54.302;10.128;2023-11-19T12:16:14;37.87;;;9.17;;
15706;SDS011;7953;54.302;10.128;2023-11-19T12:18:41;30.63;;;9.63;;
15706;SDS011;7953;54.302;10.128;2023-11-19T12:21:08;45.80;;;10.63;;
15706;SDS011;7953;54.302;10.128;2023-11-19T12:23:45;30.87;;;7.40;;
15706;SDS011;7953;54.302;10.128;2023-11-19T12:26:30;38.63;;;9.33;;
15706;SDS011;7953;54.302;10.128;2023-11-19T12:29:01;33.50;;;7.43;;
15706;SDS011;7953;54.302;10.128;2023-11-19T12:31:29;37.20;;;8.17;;
15706;SDS011;7953;54.302;10.128;2023-11-19T12:33:56;40.50;;;8.93;;
15706;SDS011;7953;54.302;10.128;2023-11-19T12:36:23;27.00;;;7.50;;
15706;SDS011;7953;54.302;10.128;2023-11-19T12:38:51;34.60;;;7.40;;
15706;SDS011;7953;54.302;10.128;2023-11-19T12:41:18;29.87;;;6.67;;
15706;SDS011;7953;54.302;10.128;2023-11-19T12:43:48;24.93;;;6.53;;
15706;SDS011;7953;54.302;10.128;2023-11-19T12:46:19;26.37;;;6.77;;
15706;SDS011;7953;54.302;10.128;2023-11-19T12:48:46;31.57;;;6.43;;
15706;SDS011;7953;54.302;10.128;2023-11-19T12:51:13;28.37;;;7.13;;
15706;SDS011;7953;54.302;10.128;2023-11-19T12:53:47;28.93;;;7.57;;
15706;SDS011;7953;54.302;10.128;2023-11-19T12:56:17;19.97;;;6.20;;
15706;SDS011;7953;54.302;10.128;2023-11-19T12:58:43;23.73;;;5.40;;
15706;SDS011;7953;54.302;10.128;2023-11-19T13:01:14;24.50;;;6.10;;
15706;SDS011;7953;54.302;10.128;2023-11-19T13:03:42;23.37;;;6.27;;
15706;SDS011;7953;54.302;10.128;2023-11-19T13:06:10;18.53;;;5.80;;
15706;SDS011;7953;54.302;10.128;2023-11-19T13:08:39;24.67;;;5.77;;
15706;SDS011;7953;54.302;10.128;2023-11-19T13:11:07;25.03;;;6.20;;
15706;SDS011;7953;54.302;10.128;2023-11-19T13:16:25;23.73;;;5.47;;
15706;SDS011;7953;54.302;10.128;2023-11-19T13:18:53;23.60;;;7.20;;
15706;SDS011;7953;54.302;10.128;2023-11-19T13:21:20;25.90;;;6.33;;
15706;SDS011;7953;54.302;10.128;2023-11-19T13:23:47;23.83;;;6.00;;
15706;SDS011;7953;54.302;10.128;2023-11-19T13:26:14;23.33;;;5.40;;
15706;SDS011;7953;54.302;10.128;2023-11-19T13:28:41;20.53;;;4.77;;
15706;SDS011;7953;54.302;10.128;2023-11-19T13:31:09;21.33;;;5.83;;
15706;SDS011;7953;54.302;10.128;2023-11-19T13:33:37;26.37;;;5.23;;
15706;SDS011;7953;54.302;10.128;2023-11-19T13:36:04;19.90;;;5.53;;
15706;SDS011;7953;54.302;10.128;2023-11-19T13:38:32;21.67;;;5.50;;
15706;SDS011;7953;54.302;10.128;2023-11-19T13:41:00;23.87;;;7.17;;
15706;SDS011;7953;54.302;10.128;2023-11-19T13:43:27;22.50;;;5.93;;
15706;SDS011;7953;54.302;10.128;2023-11-19T13:45:54;28.93;;;6.23;;
15706;SDS011;7953;54.302;10.128;2023-11-19T13:48:22;19.27;;;5.37;;
15706;SDS011;7953;54.302;10.128;2023-11-19T13:50:49;24.50;;;6.53;;
15706;SDS011;7953;54.302;10.128;2023-11-19T13:53:16;26.63;;;6.40;;
15706;SDS011;7953;54.302;10.128;2023-11-19T13:55:43;33.33;;;7.03;;
15706;SDS011;7953;54.302;10.128;2023-11-19T13:58:10;30.67;;;6.67;;
15706;SDS011;7953;54.302;10.128;2023-11-19T14:00:37;34.00;;;5.77;;
15706;SDS011;7953;54.302;10.128;2023-11-19T14:03:05;26.97;;;6.03;;
15706;SDS011;7953;54.302;10.128;2023-11-19T14:05:33;24.80;;;6.73;;
15706;SDS011;7953;54.302;10.128;2023-11-19T14:08:00;29.57;;;6.13;;
15706;SDS011;7953;54.302;10.128;2023-11-19T14:10:27;20.87;;;6.27;;
15706;SDS011;7953;54.302;10.128;2023-11-19T14:12:54;27.73;;;6.03;;
15706;SDS011;7953;54.302;10.128;2023-11-19T14:15:21;32.03;;;6.60;;
15706;SDS011;7953;54.302;10.128;2023-11-19T14:17:48;25.63;;;5.20;;
15706;SDS011;7953;54.302;10.128;2023-11-19T14:20:14;25.93;;;7.10;;
15706;SDS011;7953;54.302;10.128;2023-11-19T14:22:44;26.40;;;6.40;;
15706;SDS011;7953;54.302;10.128;2023-11-19T14:25:14;32.80;;;5.90;;
15706;SDS011;7953;54.302;10.128;2023-11-19T14:27:41;25.47;;;6.40;;
15706;SDS011;7953;54.302;10.128;2023-11-19T14:30:09;30.20;;;6.77;;
15706;SDS011;7953;54.302;10.128;2023-11-19T14:32:38;28.43;;;6.50;;
15706;SDS011;7953;54.302;10.128;2023-11-19T14:35:07;30.33;;;7.33;;
15706;SDS011;7953;54.302;10.128;2023-11-19T14:37:34;28.13;;;6.27;;
15706;SDS011;7953;54.302;10.128;2023-11-19T14:40:03;30.93;;;6.60;;
15706;SDS011;7953;54.302;10.128;2023-11-19T14:42:31;34.57;;;7.00;;
15706;SDS011;7953;54.302;10.128;2023-11-19T14:44:58;28.73;;;6.53;;
15706;SDS011;7953;54.302;10.128;2023-11-19T14:47:25;26.07;;;5.70;;
15706;SDS011;7953;54.302;10.128;2023-11-19T14:49:52;30.90;;;5.80;;
15706;SDS011;7953;54.302;10.128;2023-11-19T14:52:18;26.80;;;7.40;;
15706;SDS011;7953;54.302;10.128;2023-11-19T14:54:45;19.43;;;6.37;;